createdAt,value
2023-04-21T00:00:57.229Z,22.80
2023-04-21T00:03:42.989Z,27.50
2023-04-21T00:06:28.652Z,32.63
2023-04-21T00:09:13.937Z,21.25
2023-04-21T00:11:59.144Z,27.33
2023-04-21T00:14:44.481Z,29.92
2023-04-21T00:17:29.934Z,21.75
2023-04-21T00:20:15.402Z,34.10
2023-04-21T00:23:00.581Z,28.30
2023-04-21T00:25:45.588Z,24.67
2023-04-21T00:28:30.738Z,28.67
2023-04-21T00:31:15.830Z,30.65
2023-04-21T00:34:00.743Z,32.70
2023-04-21T00:36:45.907Z,29.35
2023-04-21T00:39:31.218Z,28.63
2023-04-21T00:42:17.218Z,24.42
2023-04-21T00:45:06.241Z,30.75
2023-04-21T00:47:52.339Z,27.63
2023-04-21T00:50:37.701Z,41.22
2023-04-21T00:53:23.109Z,32.00
2023-04-21T00:56:08.278Z,32.83
2023-04-21T00:58:53.832Z,36.17
2023-04-21T01:01:39.992Z,33.13
2023-04-21T01:04:25.238Z,31.77
2023-04-21T01:07:10.417Z,28.88
2023-04-21T01:09:55.404Z,38.60
2023-04-21T01:12:48.026Z,31.20
2023-04-21T01:15:33.825Z,34.72
2023-04-21T01:18:19.270Z,33.17
2023-04-21T01:21:06.170Z,36.05
2023-04-21T01:23:51.218Z,42.58
2023-04-21T01:26:36.635Z,42.92
2023-04-21T01:29:21.572Z,35.03
2023-04-21T01:32:12.251Z,35.35
2023-04-21T01:34:58.827Z,33.65
2023-04-21T01:37:44.071Z,32.20
2023-04-21T01:40:29.020Z,37.05
2023-04-21T01:43:16.154Z,37.20
2023-04-21T01:46:01.431Z,35.47
2023-04-21T01:48:46.922Z,37.40
2023-04-21T01:51:32.465Z,34.75
2023-04-21T01:54:17.838Z,37.05
2023-04-21T01:57:03.846Z,37.80
2023-04-21T01:59:49.785Z,41.88
2023-04-21T02:02:35.062Z,35.67
2023-04-21T02:05:20.451Z,35.83
2023-04-21T02:08:06.438Z,38.15
2023-04-21T02:10:51.419Z,36.97
2023-04-21T02:13:36.479Z,39.25
2023-04-21T02:16:26.291Z,40.92
2023-04-21T02:21:56.693Z,42.30
2023-04-21T02:24:41.863Z,41.15
2023-04-21T02:27:27.216Z,48.60
2023-04-21T02:30:12.204Z,34.92
2023-04-21T02:32:57.582Z,45.25
2023-04-21T02:35:42.563Z,35.22
2023-04-21T02:38:27.423Z,39.60
2023-04-21T02:41:12.298Z,41.70
2023-04-21T02:43:57.122Z,38.58
2023-04-21T02:46:42.671Z,38.47
2023-04-21T02:49:27.516Z,41.92
2023-04-21T02:52:12.610Z,45.30
2023-04-21T02:54:57.679Z,42.63
2023-04-21T02:57:42.715Z,39.83
2023-04-21T03:00:27.989Z,45.00
2023-04-21T03:03:13.061Z,38.00
2023-04-21T03:05:59.300Z,36.67
2023-04-21T03:08:44.377Z,43.40
2023-04-21T03:11:29.401Z,45.50
2023-04-21T03:14:14.287Z,48.15
2023-04-21T03:16:59.612Z,48.28
2023-04-21T03:19:45.421Z,45.08
2023-04-21T03:22:30.597Z,53.42
2023-04-21T03:25:16.095Z,46.47
2023-04-21T03:28:01.505Z,43.28
2023-04-21T03:30:46.842Z,43.08
2023-04-21T03:33:31.768Z,51.22
2023-04-21T03:36:16.867Z,49.25
2023-04-21T03:39:12.669Z,48.92
2023-04-21T03:42:04.946Z,45.10
2023-04-21T03:44:50.150Z,49.00
2023-04-21T03:47:35.883Z,45.80
2023-04-21T03:50:21.178Z,44.30
2023-04-21T03:53:06.583Z,48.78
2023-04-21T03:55:51.688Z,44.75
2023-04-21T03:58:37.252Z,45.25
2023-04-21T04:01:23.024Z,45.22
2023-04-21T04:04:08.491Z,51.72
2023-04-21T04:06:54.036Z,44.20
2023-04-21T04:09:39.193Z,46.53
2023-04-21T04:12:24.473Z,38.60
2023-04-21T04:15:09.755Z,40.20
2023-04-21T04:17:55.860Z,42.75
2023-04-21T04:20:41.227Z,39.38
2023-04-21T04:23:26.129Z,39.90
2023-04-21T04:26:11.320Z,46.33
2023-04-21T04:28:56.752Z,44.85
2023-04-21T04:31:42.528Z,49.63
2023-04-21T04:34:27.784Z,43.30
2023-04-21T04:37:13.292Z,45.65
2023-04-21T04:39:59.558Z,44.60
2023-04-21T04:42:46.980Z,37.17
2023-04-21T04:45:33.107Z,43.53
2023-04-21T04:48:18.394Z,43.85
2023-04-21T04:51:03.446Z,40.42
2023-04-21T04:53:48.867Z,48.38
2023-04-21T04:56:34.048Z,39.60
2023-04-21T04:59:19.219Z,50.50
2023-04-21T05:02:04.368Z,44.88
2023-04-21T05:04:50.848Z,46.60
2023-04-21T05:07:36.489Z,41.03
2023-04-21T05:10:21.538Z,47.33
2023-04-21T05:13:07.017Z,44.78
2023-04-21T05:15:59.221Z,45.40
2023-04-21T05:18:44.140Z,39.90
2023-04-21T05:21:31.196Z,40.00
2023-04-21T05:24:16.318Z,44.10
2023-04-21T05:27:02.971Z,42.15
2023-04-21T05:29:48.230Z,34.88
2023-04-21T05:32:33.387Z,36.90
2023-04-21T05:35:18.837Z,48.03
2023-04-21T05:38:04.172Z,42.20
2023-04-21T05:40:56.080Z,49.83
2023-04-21T05:43:41.123Z,42.30
2023-04-21T05:46:26.071Z,40.17
2023-04-21T05:49:11.364Z,49.80
2023-04-21T05:51:56.658Z,45.45
2023-04-21T05:54:41.818Z,45.90
2023-04-21T05:57:27.016Z,45.10
2023-04-21T06:00:12.877Z,46.47
2023-04-21T06:02:58.024Z,45.55
2023-04-21T06:05:43.266Z,38.22
2023-04-21T06:08:28.252Z,51.10
2023-04-21T06:11:13.515Z,49.63
2023-04-21T06:13:59.719Z,39.53
2023-04-21T06:16:44.947Z,50.13
2023-04-21T06:19:30.276Z,47.08
2023-04-21T06:22:15.593Z,38.50
2023-04-21T06:25:01.119Z,41.72
2023-04-21T06:27:46.330Z,33.25
2023-04-21T06:30:31.490Z,35.47
2023-04-21T06:33:16.552Z,26.23
2023-04-21T06:36:01.411Z,27.95
2023-04-21T06:38:46.575Z,24.52
2023-04-21T06:41:31.532Z,21.08
2023-04-21T06:44:16.920Z,21.42
2023-04-21T06:47:02.344Z,22.60
2023-04-21T06:49:47.748Z,18.02
2023-04-21T06:52:32.815Z,23.10
2023-04-21T06:55:17.825Z,20.58
2023-04-21T06:58:03.071Z,17.60
2023-04-21T07:00:48.370Z,18.27
2023-04-21T07:03:33.655Z,22.75
2023-04-21T07:06:19.030Z,15.73
2023-04-21T07:09:03.977Z,16.85
2023-04-21T07:11:48.960Z,18.08
2023-04-21T07:14:34.036Z,18.38
2023-04-21T07:17:18.997Z,15.98
2023-04-21T07:20:04.294Z,16.45
2023-04-21T07:22:49.297Z,17.85
2023-04-21T07:25:34.444Z,15.48
2023-04-21T07:28:19.664Z,18.45
2023-04-21T07:31:04.990Z,13.05
2023-04-21T07:33:50.656Z,15.00
2023-04-21T07:36:35.986Z,13.25
2023-04-21T07:39:21.597Z,14.98
2023-04-21T07:42:08.228Z,16.75
2023-04-21T07:44:53.646Z,14.32
2023-04-21T07:47:38.907Z,15.55
2023-04-21T07:50:24.344Z,13.35
2023-04-21T07:53:09.577Z,15.60
2023-04-21T07:55:54.555Z,14.60
2023-04-21T07:58:40.041Z,15.00
2023-04-21T08:01:25.029Z,15.50
2023-04-21T08:04:10.454Z,15.98
2023-04-21T08:06:55.924Z,14.38
2023-04-21T08:09:41.302Z,16.92
2023-04-21T08:12:26.936Z,16.95
2023-04-21T08:15:12.521Z,16.25
2023-04-21T08:17:57.711Z,14.73
2023-04-21T08:20:42.631Z,16.85
2023-04-21T08:23:31.746Z,18.25
2023-04-21T08:26:18.923Z,18.88
2023-04-21T08:29:07.450Z,16.92
2023-04-21T08:31:52.555Z,16.05
2023-04-21T08:34:38.069Z,18.55
2023-04-21T08:37:23.301Z,17.00
2023-04-21T08:40:09.012Z,18.55
2023-04-21T08:42:54.315Z,19.60
2023-04-21T08:45:39.503Z,16.60
2023-04-21T08:48:27.242Z,16.17
2023-04-21T08:51:18.285Z,17.98
2023-04-21T08:54:03.498Z,18.25
2023-04-21T08:56:49.442Z,21.13
2023-04-21T08:59:36.722Z,16.50
2023-04-21T09:02:22.433Z,22.70
2023-04-21T09:05:08.282Z,19.50
2023-04-21T09:08:08.456Z,19.67
2023-04-21T09:10:55.149Z,18.58
2023-04-21T09:13:43.318Z,18.23
2023-04-21T09:16:33.388Z,18.63
2023-04-21T09:19:18.833Z,16.48
2023-04-21T09:22:04.576Z,17.27
2023-04-21T09:24:57.708Z,17.48
2023-04-21T09:27:43.162Z,16.42
2023-04-21T09:30:28.555Z,18.98
2023-04-21T09:33:30.703Z,19.15
2023-04-21T09:36:25.083Z,18.38
2023-04-21T09:39:28.883Z,19.45
2023-04-21T09:42:15.595Z,20.73
2023-04-21T09:47:55.853Z,16.35
2023-04-21T09:51:22.115Z,19.02
2023-04-21T09:53:49.962Z,17.45
2023-04-21T09:56:39.107Z,20.85
2023-04-21T10:02:13.051Z,20.55
2023-04-21T10:04:59.344Z,22.42
2023-04-21T10:07:45.721Z,18.48
2023-04-21T10:10:35.463Z,16.73
2023-04-21T10:13:21.926Z,16.23
2023-04-21T10:16:09.337Z,14.35
2023-04-21T10:18:54.796Z,15.10
2023-04-21T10:21:40.155Z,18.40
2023-04-21T10:24:29.845Z,18.73
2023-04-21T10:27:31.615Z,17.02
2023-04-21T10:30:22.789Z,12.35
2023-04-21T10:33:08.405Z,10.82
2023-04-21T10:36:03.943Z,12.98
2023-04-21T10:38:57.175Z,13.60
2023-04-21T10:41:46.347Z,13.30
2023-04-21T10:44:32.063Z,11.73
2023-04-21T10:47:26.544Z,11.77
2023-04-21T10:50:15.998Z,14.10
2023-04-21T10:53:12.430Z,11.82
2023-04-21T10:55:57.915Z,16.05
2023-04-21T10:58:43.408Z,20.42
2023-04-21T11:01:28.875Z,14.52
2023-04-21T11:04:19.095Z,16.00
2023-04-21T11:07:12.324Z,16.27
2023-04-21T11:09:58.712Z,15.90
2023-04-21T11:12:43.809Z,17.52
2023-04-21T11:15:28.846Z,18.85
2023-04-21T11:18:14.600Z,16.98
2023-04-21T11:21:24.746Z,19.40
2023-04-21T11:24:09.955Z,18.42
2023-04-21T11:26:55.181Z,20.48
2023-04-21T11:29:41.042Z,17.52
2023-04-21T11:32:26.625Z,19.85
2023-04-21T11:35:11.913Z,20.77
2023-04-21T11:37:57.250Z,17.58
2023-04-21T11:40:49.516Z,21.48
2023-04-21T11:43:34.527Z,16.92
2023-04-21T11:46:28.146Z,19.55
2023-04-21T11:49:14.971Z,19.45
2023-04-21T11:52:00.173Z,15.82
2023-04-21T11:54:45.616Z,16.63
2023-04-21T11:57:33.015Z,12.27
2023-04-21T12:00:18.724Z,12.35
2023-04-21T12:03:09.015Z,11.57
2023-04-21T12:05:57.746Z,11.32
2023-04-21T12:08:43.263Z,12.33
2023-04-21T12:11:31.708Z,11.02
2023-04-21T12:14:18.504Z,11.68
2023-04-21T12:17:06.799Z,10.55
2023-04-21T12:19:51.756Z,9.75
2023-04-21T12:22:36.740Z,9.60
2023-04-21T12:25:22.098Z,9.25
2023-04-21T12:28:08.511Z,12.57
2023-04-21T12:30:53.787Z,10.30
2023-04-21T12:33:38.878Z,10.13
2023-04-21T12:36:24.351Z,9.40
2023-04-21T12:39:10.115Z,10.32
2023-04-21T12:41:54.872Z,8.90
2023-04-21T12:44:40.649Z,11.13
2023-04-21T12:47:25.811Z,9.80
2023-04-21T12:50:11.377Z,9.10
2023-04-21T12:52:56.502Z,8.00
2023-04-21T12:55:49.733Z,8.75
2023-04-21T12:58:42.434Z,10.15
2023-04-21T13:01:27.573Z,9.10
2023-04-21T13:04:12.916Z,8.85
2023-04-21T13:06:58.275Z,9.15
2023-04-21T13:09:43.498Z,8.38
2023-04-21T13:12:28.861Z,9.00
2023-04-21T13:15:13.844Z,8.20
2023-04-21T13:17:59.016Z,7.50
2023-04-21T13:20:44.417Z,6.88
2023-04-21T13:23:29.476Z,6.97
2023-04-21T13:26:14.954Z,7.65
2023-04-21T13:29:01.106Z,6.95
2023-04-21T13:31:46.272Z,6.90
2023-04-21T13:34:32.995Z,6.55
2023-04-21T13:37:18.805Z,6.40
2023-04-21T13:40:05.188Z,8.77
2023-04-21T13:42:50.186Z,10.65
2023-04-21T13:45:35.460Z,7.38
2023-04-21T13:48:22.001Z,7.40
2023-04-21T13:51:07.126Z,8.05
2023-04-21T13:53:52.235Z,6.63
2023-04-21T13:56:37.473Z,6.45
2023-04-21T13:59:22.668Z,6.75
2023-04-21T14:02:08.416Z,8.30
2023-04-21T14:04:54.351Z,7.60
2023-04-21T14:07:39.724Z,6.68
2023-04-21T14:10:25.232Z,7.22
2023-04-21T14:13:17.380Z,7.25
2023-04-21T14:16:12.805Z,9.25
2023-04-21T14:18:57.857Z,6.25
2023-04-21T14:21:43.384Z,6.90
2023-04-21T14:24:30.050Z,7.60
2023-04-21T14:27:15.930Z,7.03
2023-04-21T14:30:01.561Z,7.13
2023-04-21T14:32:46.579Z,7.63
2023-04-21T14:35:32.050Z,7.63
2023-04-21T14:38:17.232Z,6.97
2023-04-21T14:41:03.065Z,6.95
2023-04-21T14:43:49.674Z,7.07
2023-04-21T14:46:35.407Z,7.13
2023-04-21T14:49:21.298Z,11.25
2023-04-21T14:52:06.868Z,7.43
2023-04-21T14:54:52.235Z,6.00
2023-04-21T14:57:37.382Z,6.53
2023-04-21T15:00:23.576Z,6.47
2023-04-21T15:03:08.747Z,6.00
2023-04-21T15:05:55.005Z,6.63
2023-04-21T15:08:41.049Z,6.28
2023-04-21T15:11:26.555Z,6.32
2023-04-21T15:14:11.907Z,6.68
2023-04-21T15:16:57.138Z,6.60
2023-04-21T15:19:42.321Z,6.68
2023-04-21T15:22:27.615Z,6.00
2023-04-21T15:25:12.891Z,5.95
2023-04-21T15:27:57.826Z,6.72
2023-04-21T15:30:43.561Z,8.30
2023-04-21T15:33:28.833Z,4.28
2023-04-21T15:36:13.977Z,5.90
2023-04-21T15:38:59.288Z,7.10
2023-04-21T15:41:44.396Z,6.85
2023-04-21T15:44:29.764Z,6.85
2023-04-21T15:47:16.811Z,19.00
2023-04-21T15:50:02.301Z,24.75
2023-04-21T15:52:47.602Z,26.83
2023-04-21T15:55:33.225Z,26.40
2023-04-21T15:58:18.726Z,25.67
2023-04-21T16:01:04.327Z,27.58
2023-04-21T16:03:49.706Z,28.95
2023-04-21T16:06:36.162Z,28.03
2023-04-21T16:09:21.664Z,26.75
2023-04-21T16:12:10.070Z,27.10
2023-04-21T16:14:59.657Z,31.58
2023-04-21T16:17:49.318Z,33.45
2023-04-21T16:20:34.543Z,29.40
2023-04-21T16:23:20.363Z,29.02
2023-04-21T16:26:06.272Z,30.92
2023-04-21T16:28:54.229Z,26.60
2023-04-21T16:31:39.667Z,30.30
2023-04-21T16:34:24.975Z,28.30
2023-04-21T16:37:10.160Z,25.02
2023-04-21T16:39:55.125Z,23.67
2023-04-21T16:42:40.546Z,25.00
2023-04-21T16:45:25.854Z,25.38
2023-04-21T16:48:11.391Z,24.52
2023-04-21T16:50:56.686Z,22.33
2023-04-21T16:53:42.532Z,25.70
2023-04-21T16:56:27.408Z,28.08
2023-04-21T16:59:12.402Z,29.20
2023-04-21T17:01:57.556Z,28.33
2023-04-21T17:04:42.771Z,34.75
2023-04-21T17:07:28.049Z,33.17
2023-04-21T17:10:13.397Z,33.92
2023-04-21T17:12:58.320Z,34.05
2023-04-21T17:15:43.294Z,37.63
2023-04-21T17:18:28.540Z,37.15
2023-04-21T17:21:13.608Z,34.05
2023-04-21T17:23:58.937Z,37.80
2023-04-21T17:26:43.971Z,40.75
2023-04-21T17:29:29.250Z,39.78
2023-04-21T17:32:14.606Z,39.35
2023-04-21T17:34:59.970Z,41.53
2023-04-21T17:37:45.074Z,42.83
2023-04-21T17:40:30.033Z,41.05
2023-04-21T17:43:15.290Z,44.45
2023-04-21T17:46:00.485Z,41.40
2023-04-21T17:48:45.760Z,41.25
2023-04-21T17:51:31.106Z,43.88
2023-04-21T17:54:16.894Z,37.85
2023-04-21T17:57:02.607Z,41.83
2023-04-21T17:59:47.679Z,41.33
2023-04-21T18:02:32.849Z,39.58
2023-04-21T18:05:17.942Z,44.50
2023-04-21T18:08:03.199Z,43.03
2023-04-21T18:10:48.493Z,40.90
2023-04-21T18:13:34.038Z,44.00
2023-04-21T18:16:19.403Z,38.50
2023-04-21T18:19:04.737Z,39.83
2023-04-21T18:21:50.114Z,41.85
2023-04-21T18:24:35.880Z,40.17
2023-04-21T18:27:21.555Z,38.33
2023-04-21T18:30:11.181Z,39.80
2023-04-21T18:32:56.131Z,39.10
2023-04-21T18:35:41.926Z,37.97
2023-04-21T18:38:27.027Z,38.17
2023-04-21T18:41:11.936Z,37.72
2023-04-21T18:43:57.066Z,41.25
2023-04-21T18:46:42.704Z,45.60
2023-04-21T18:49:27.710Z,41.30
2023-04-21T18:52:13.563Z,41.42
2023-04-21T18:54:58.644Z,42.90
2023-04-21T18:57:43.939Z,42.83
2023-04-21T19:00:29.755Z,41.60
2023-04-21T19:03:15.093Z,43.33
2023-04-21T19:06:00.234Z,42.65
2023-04-21T19:08:45.460Z,43.03
2023-04-21T19:11:30.855Z,42.85
2023-04-21T19:14:16.151Z,46.88
2023-04-21T19:17:01.657Z,48.40
2023-04-21T19:19:46.601Z,44.45
2023-04-21T19:22:33.469Z,40.35
2023-04-21T19:25:18.602Z,45.92
2023-04-21T19:28:04.204Z,40.55
2023-04-21T19:30:49.529Z,41.75
2023-04-21T19:33:34.930Z,38.45
2023-04-21T19:36:20.509Z,50.72
2023-04-21T19:39:07.293Z,48.00
2023-04-21T19:41:52.134Z,52.92
2023-04-21T19:44:38.849Z,41.35
2023-04-21T19:47:24.140Z,42.55
2023-04-21T19:50:09.436Z,42.08
2023-04-21T19:52:54.401Z,46.47
2023-04-21T19:55:39.496Z,46.40
2023-04-21T19:58:38.791Z,45.83
2023-04-21T20:04:11.858Z,39.72
2023-04-21T20:06:57.250Z,42.97
2023-04-21T20:09:42.496Z,48.97
2023-04-21T20:12:27.964Z,50.65
2023-04-21T20:15:13.338Z,42.53
2023-04-21T20:17:58.524Z,47.03
2023-04-21T20:20:43.759Z,42.67
2023-04-21T20:23:29.285Z,48.80
2023-04-21T20:26:14.245Z,49.47
2023-04-21T20:28:59.163Z,47.38
2023-04-21T20:31:45.309Z,43.42
2023-04-21T20:34:30.806Z,49.22
2023-04-21T20:37:16.074Z,44.97
2023-04-21T20:40:03.427Z,49.50
2023-04-21T20:42:48.745Z,51.63
2023-04-21T20:45:34.540Z,42.22
2023-04-21T20:48:19.844Z,44.28
2023-04-21T20:51:05.079Z,49.53
2023-04-21T20:53:50.132Z,43.53
2023-04-21T20:56:35.448Z,47.55
2023-04-21T20:59:20.704Z,49.35
2023-04-21T21:02:06.073Z,44.33
2023-04-21T21:04:51.257Z,46.08
2023-04-21T21:07:36.223Z,41.40
2023-04-21T21:10:21.529Z,47.92
2023-04-21T21:13:06.684Z,50.78
2023-04-21T21:15:52.154Z,47.97
2023-04-21T21:18:37.292Z,50.22
2023-04-21T21:21:22.141Z,51.22
2023-04-21T21:24:07.293Z,46.30
2023-04-21T21:26:52.245Z,47.90
2023-04-21T21:29:37.856Z,50.20
2023-04-21T21:32:23.480Z,47.60
2023-04-21T21:35:09.501Z,50.33
2023-04-21T21:37:54.748Z,47.20
2023-04-21T21:40:39.897Z,48.35
2023-04-21T21:43:25.125Z,47.40
2023-04-21T21:46:10.285Z,46.75
2023-04-21T21:48:55.579Z,47.63
2023-04-21T21:51:41.051Z,52.20
2023-04-21T21:54:26.410Z,47.13
2023-04-21T21:57:11.751Z,51.75
2023-04-21T21:59:56.910Z,53.00
2023-04-21T22:02:42.648Z,52.45
2023-04-21T22:05:27.717Z,57.47
2023-04-21T22:08:12.880Z,51.85
2023-04-21T22:10:58.205Z,50.65
2023-04-21T22:13:43.488Z,51.40
2023-04-21T22:16:29.931Z,45.58
2023-04-21T22:19:17.594Z,46.28
2023-04-21T22:22:02.497Z,47.70
2023-04-21T22:24:47.627Z,49.50
2023-04-21T22:27:33.714Z,45.60
2023-04-21T22:30:18.702Z,49.72
2023-04-21T22:33:04.075Z,54.08
2023-04-21T22:35:49.098Z,53.78
2023-04-21T22:38:34.098Z,51.35
2023-04-21T22:41:19.260Z,52.92
2023-04-21T22:44:04.277Z,50.45
2023-04-21T22:46:49.588Z,51.60
2023-04-21T22:49:34.925Z,50.53
2023-04-21T22:52:19.852Z,51.30
2023-04-21T22:55:05.243Z,51.85
2023-04-21T22:57:51.011Z,50.15
2023-04-21T23:00:35.967Z,48.25
2023-04-21T23:03:22.927Z,44.83
2023-04-21T23:06:08.381Z,49.38
2023-04-21T23:08:53.406Z,49.28
2023-04-21T23:11:38.422Z,50.85
2023-04-21T23:14:23.675Z,49.35
2023-04-21T23:17:09.020Z,51.72
2023-04-21T23:19:55.256Z,48.63
2023-04-21T23:22:40.996Z,48.75
2023-04-21T23:25:26.033Z,45.38
2023-04-21T23:28:11.140Z,40.53
2023-04-21T23:30:56.420Z,41.35
2023-04-21T23:33:41.601Z,39.47
2023-04-21T23:36:27.110Z,40.75
2023-04-21T23:39:12.336Z,37.35
2023-04-21T23:41:57.538Z,46.50
2023-04-21T23:44:42.882Z,49.60
2023-04-21T23:47:28.188Z,45.40
2023-04-21T23:50:13.711Z,39.85
2023-04-21T23:52:58.923Z,34.58
2023-04-21T23:55:46.077Z,33.20
2023-04-21T23:58:31.116Z,31.52
